createdAt,value
2019-02-18T00:01:49.327Z,21.30
2019-02-18T00:04:16.475Z,21.30
2019-02-18T00:06:43.211Z,21.20
2019-02-18T00:09:09.847Z,21.20
2019-02-18T00:11:36.997Z,21.20
2019-02-18T00:14:03.752Z,21.20
2019-02-18T00:16:30.442Z,21.20
2019-02-18T00:18:57.522Z,21.10
2019-02-18T00:21:24.262Z,21.20
2019-02-18T00:23:50.982Z,21.20
2019-02-18T00:26:18.058Z,21.20
2019-02-18T00:28:45.197Z,21.10
2019-02-18T00:31:11.937Z,21.10
2019-02-18T00:33:38.683Z,21.10
2019-02-18T00:36:05.533Z,21.00
2019-02-18T00:38:32.256Z,21.10
2019-02-18T00:40:58.892Z,21.00
2019-02-18T00:43:25.661Z,21.00
2019-02-18T00:45:52.472Z,21.00
2019-02-18T00:48:19.315Z,21.00
2019-02-18T00:50:46.157Z,21.00
2019-02-18T00:53:12.905Z,21.00
2019-02-18T00:55:39.635Z,20.90
2019-02-18T00:58:06.839Z,20.90
2019-02-18T01:00:33.738Z,20.90
2019-02-18T01:03:00.580Z,20.90
2019-02-18T01:05:27.322Z,20.90
2019-02-18T01:07:54.049Z,20.80
2019-02-18T01:10:20.796Z,20.80
2019-02-18T01:12:47.628Z,20.80
2019-02-18T01:15:14.439Z,20.80
2019-02-18T01:17:41.171Z,20.80
2019-02-18T01:20:07.951Z,20.80
2019-02-18T01:22:34.696Z,20.80
2019-02-18T01:25:01.535Z,20.80
2019-02-18T01:27:28.282Z,20.70
2019-02-18T01:29:55.011Z,20.70
2019-02-18T01:32:21.750Z,20.70
2019-02-18T01:34:48.602Z,20.70
2019-02-18T01:37:15.442Z,20.70
2019-02-18T01:39:42.170Z,20.70
2019-02-18T01:42:08.937Z,20.60
2019-02-18T01:44:35.649Z,20.70
2019-02-18T01:47:02.292Z,20.60
2019-02-18T01:49:29.129Z,20.60
2019-02-18T01:51:55.869Z,20.60
2019-02-18T01:54:22.571Z,20.60
2019-02-18T01:56:49.345Z,20.60
2019-02-18T01:59:16.086Z,20.60
2019-02-18T02:01:42.940Z,20.60
2019-02-18T02:04:09.780Z,20.60
2019-02-18T02:06:36.510Z,20.60
2019-02-18T02:09:03.248Z,20.60
2019-02-18T02:11:29.985Z,20.60
2019-02-18T02:13:56.729Z,20.60
2019-02-18T02:16:23.472Z,20.50
2019-02-18T02:18:50.213Z,20.50
2019-02-18T02:21:16.942Z,20.50
2019-02-18T02:23:43.581Z,20.50
2019-02-18T02:26:10.432Z,20.50
2019-02-18T02:28:37.159Z,20.40
2019-02-18T02:31:03.914Z,20.50
2019-02-18T02:33:30.756Z,20.50
2019-02-18T02:35:57.489Z,20.90
2019-02-18T02:38:24.327Z,20.50
2019-02-18T02:40:51.178Z,20.50
2019-02-18T02:43:17.904Z,20.50
2019-02-18T02:45:44.588Z,20.50
2019-02-18T02:48:11.286Z,20.50
2019-02-18T02:50:38.053Z,20.50
2019-02-18T02:53:04.907Z,20.50
2019-02-18T02:55:31.716Z,20.50
2019-02-18T02:57:58.557Z,20.50
2019-02-18T03:00:25.286Z,20.50
2019-02-18T03:02:52.053Z,20.50
2019-02-18T03:05:18.864Z,20.40
2019-02-18T03:07:45.619Z,20.50
2019-02-18T03:10:12.343Z,20.50
2019-02-18T03:12:39.092Z,20.40
2019-02-18T03:15:05.872Z,20.40
2019-02-18T03:17:32.671Z,20.40
2019-02-18T03:19:59.621Z,20.40
2019-02-18T03:22:26.369Z,20.40
2019-02-18T03:24:53.301Z,20.30
2019-02-18T03:27:20.141Z,20.30
2019-02-18T03:29:46.987Z,20.30
2019-02-18T03:32:13.743Z,20.30
2019-02-18T03:34:40.564Z,20.30
2019-02-18T03:37:07.514Z,20.20
2019-02-18T03:39:34.445Z,20.20
2019-02-18T03:42:01.148Z,20.30
2019-02-18T03:44:27.923Z,20.20
2019-02-18T03:46:54.663Z,20.20
2019-02-18T03:49:21.409Z,20.20
2019-02-18T03:51:48.552Z,20.20
2019-02-18T03:54:15.301Z,20.20
2019-02-18T03:56:42.192Z,20.30
2019-02-18T03:59:09.187Z,20.30
2019-02-18T04:01:35.883Z,20.30
2019-02-18T04:04:02.653Z,20.30
2019-02-18T04:06:29.290Z,20.30
2019-02-18T04:08:55.927Z,20.20
2019-02-18T04:11:22.677Z,20.20
2019-02-18T04:13:49.421Z,20.20
2019-02-18T04:16:16.335Z,20.20
2019-02-18T04:18:43.106Z,20.20
2019-02-18T04:21:09.831Z,20.20
2019-02-18T04:23:36.578Z,20.20
2019-02-18T04:26:03.317Z,20.20
2019-02-18T04:28:30.155Z,20.20
2019-02-18T04:30:56.901Z,20.20
2019-02-18T04:33:23.618Z,20.20
2019-02-18T04:35:50.387Z,20.20
2019-02-18T04:38:17.225Z,20.20
2019-02-18T04:40:44.051Z,20.30
2019-02-18T04:43:10.804Z,20.20
2019-02-18T04:45:37.502Z,20.20
2019-02-18T04:48:04.281Z,20.20
2019-02-18T04:50:31.018Z,20.20
2019-02-18T04:52:57.854Z,20.20
2019-02-18T04:55:24.601Z,20.20
2019-02-18T04:57:51.332Z,20.20
2019-02-18T05:00:18.078Z,20.20
2019-02-18T05:02:44.773Z,20.20
2019-02-18T05:05:11.663Z,20.20
2019-02-18T05:07:38.413Z,20.20
2019-02-18T05:10:05.128Z,20.20
2019-02-18T05:12:31.980Z,20.20
2019-02-18T05:14:58.679Z,20.10
2019-02-18T05:17:25.463Z,20.10
2019-02-18T05:19:52.353Z,20.10
2019-02-18T05:22:19.149Z,20.10
2019-02-18T05:24:45.902Z,20.10
2019-02-18T05:27:12.610Z,20.10
2019-02-18T05:29:39.565Z,20.10
2019-02-18T05:32:06.293Z,20.10
2019-02-18T05:34:33.056Z,20.00
2019-02-18T05:36:59.885Z,20.00
2019-02-18T05:39:26.623Z,20.00
2019-02-18T05:41:53.455Z,20.00
2019-02-18T05:44:20.206Z,20.00
2019-02-18T05:46:46.936Z,20.00
2019-02-18T05:49:13.882Z,20.10
2019-02-18T05:51:40.618Z,20.10
2019-02-18T05:54:07.509Z,20.10
2019-02-18T05:56:34.213Z,20.10
2019-02-18T05:59:01.054Z,20.10
2019-02-18T06:01:27.893Z,20.10
2019-02-18T06:03:54.594Z,20.10
2019-02-18T06:06:21.781Z,20.10
2019-02-18T06:08:48.622Z,20.10
2019-02-18T06:11:15.356Z,20.10
2019-02-18T06:13:42.238Z,20.10
2019-02-18T06:16:09.145Z,20.20
2019-02-18T06:18:35.979Z,20.20
2019-02-18T06:21:02.762Z,20.20
2019-02-18T06:23:29.562Z,20.30
2019-02-18T06:25:56.299Z,20.40
2019-02-18T06:28:23.036Z,20.50
2019-02-18T06:30:49.790Z,20.50
2019-02-18T06:33:16.618Z,20.50
2019-02-18T06:35:43.375Z,20.60
2019-02-18T06:38:10.099Z,20.70
2019-02-18T06:40:36.847Z,20.80
2019-02-18T06:43:03.679Z,20.90
2019-02-18T06:45:30.640Z,21.00
2019-02-18T06:47:57.474Z,21.10
2019-02-18T06:50:24.352Z,21.20
2019-02-18T06:52:51.261Z,21.30
2019-02-18T06:55:18.092Z,21.50
2019-02-18T06:57:44.837Z,21.70
2019-02-18T07:00:11.572Z,21.80
2019-02-18T07:02:38.307Z,22.00
2019-02-18T07:05:05.063Z,22.20
2019-02-18T07:07:31.892Z,22.40
2019-02-18T07:09:58.644Z,22.60
2019-02-18T07:12:25.374Z,22.70
2019-02-18T07:14:52.109Z,22.80
2019-02-18T07:17:18.848Z,22.80
2019-02-18T07:19:45.715Z,22.90
2019-02-18T07:22:12.440Z,23.00
2019-02-18T07:24:39.173Z,22.90
2019-02-18T07:27:05.916Z,23.00
2019-02-18T07:29:34.159Z,23.00
2019-02-18T07:32:01.011Z,23.00
2019-02-18T07:34:27.641Z,23.10
2019-02-18T07:36:54.399Z,23.00
2019-02-18T07:39:21.041Z,23.00
2019-02-18T07:41:47.774Z,23.00
2019-02-18T07:44:14.515Z,23.10
2019-02-18T07:46:41.266Z,23.10
2019-02-18T07:49:08.311Z,23.10
2019-02-18T07:51:35.021Z,23.00
2019-02-18T07:54:01.794Z,22.70
2019-02-18T07:56:28.634Z,22.70
2019-02-18T07:58:55.364Z,22.60
2019-02-18T08:01:22.100Z,22.80
2019-02-18T08:03:48.841Z,23.00
2019-02-18T08:06:15.699Z,23.20
2019-02-18T08:08:43.592Z,23.40
2019-02-18T08:11:10.903Z,23.60
2019-02-18T08:13:37.641Z,23.80
2019-02-18T08:16:04.487Z,24.00
2019-02-18T08:18:31.346Z,24.20
2019-02-18T08:20:58.173Z,24.40
2019-02-18T08:23:24.910Z,24.70
2019-02-18T08:25:51.648Z,24.90
2019-02-18T08:28:18.400Z,25.10
2019-02-18T08:30:45.122Z,25.20
2019-02-18T08:33:11.859Z,25.30
2019-02-18T08:35:38.614Z,25.50
2019-02-18T08:38:05.340Z,25.70
2019-02-18T08:40:32.088Z,25.80
2019-02-18T08:42:58.941Z,26.00
2019-02-18T08:45:25.778Z,26.30
2019-02-18T08:47:52.500Z,26.40
2019-02-18T08:50:19.350Z,26.70
2019-02-18T08:52:46.183Z,26.90
2019-02-18T08:55:13.288Z,27.30
2019-02-18T08:57:40.106Z,27.90
2019-02-18T09:00:06.858Z,28.60
2019-02-18T09:02:33.656Z,29.40
2019-02-18T09:05:00.734Z,30.30
2019-02-18T09:07:27.439Z,31.10
2019-02-18T09:09:54.190Z,31.90
2019-02-18T09:12:21.629Z,32.40
2019-02-18T09:14:48.382Z,32.90
2019-02-18T09:17:15.111Z,33.20
2019-02-18T09:19:41.866Z,33.40
2019-02-18T09:22:09.036Z,33.70
2019-02-18T09:24:35.749Z,33.80
2019-02-18T09:27:02.481Z,34.00
2019-02-18T09:29:29.228Z,34.30
2019-02-18T09:31:56.070Z,34.60
2019-02-18T09:34:22.965Z,34.80
2019-02-18T09:36:49.747Z,35.20
2019-02-18T09:39:16.485Z,35.70
2019-02-18T09:41:43.195Z,36.00
2019-02-18T09:44:09.868Z,36.40
2019-02-18T09:46:36.708Z,36.80
2019-02-18T09:49:03.548Z,37.20
2019-02-18T09:51:30.287Z,37.60
2019-02-18T09:53:57.024Z,37.90
2019-02-18T09:56:23.757Z,38.00
2019-02-18T09:58:50.603Z,38.20
2019-02-18T10:01:17.324Z,38.50
2019-02-18T10:03:44.092Z,38.80
2019-02-18T10:06:10.980Z,39.30
2019-02-18T10:08:37.769Z,39.60
2019-02-18T10:11:04.626Z,40.00
2019-02-18T10:13:31.342Z,40.30
2019-02-18T10:15:58.096Z,40.60
2019-02-18T10:18:24.933Z,40.90
2019-02-18T10:20:51.662Z,41.20
2019-02-18T10:23:18.719Z,41.50
2019-02-18T10:25:45.470Z,41.70
2019-02-18T10:28:12.177Z,41.90
2019-02-18T10:30:38.871Z,42.20
2019-02-18T10:33:05.568Z,42.40
2019-02-18T10:35:32.243Z,42.80
2019-02-18T10:37:58.939Z,43.20
2019-02-18T10:40:25.638Z,43.70
2019-02-18T10:42:52.361Z,44.20
2019-02-18T10:45:19.054Z,44.80
2019-02-18T10:47:45.807Z,45.20
2019-02-18T10:50:12.506Z,45.60
2019-02-18T10:52:39.233Z,46.10
2019-02-18T10:55:05.931Z,46.40
2019-02-18T10:57:33.162Z,46.70
2019-02-18T10:59:59.908Z,47.00
2019-02-18T11:02:26.604Z,47.00
2019-02-18T11:04:53.314Z,46.50
2019-02-18T11:07:20.044Z,46.70
2019-02-18T11:09:46.765Z,46.90
2019-02-18T11:12:13.506Z,47.00
2019-02-18T11:14:40.204Z,47.10
2019-02-18T11:17:06.912Z,47.30
2019-02-18T11:19:33.631Z,47.20
2019-02-18T11:22:00.324Z,46.90
2019-02-18T11:24:27.087Z,46.20
2019-02-18T11:26:54.010Z,45.60
2019-02-18T11:29:20.731Z,44.90
2019-02-18T11:31:47.423Z,44.20
2019-02-18T11:34:14.127Z,43.80
2019-02-18T11:36:40.885Z,43.30
2019-02-18T11:39:07.581Z,42.70
2019-02-18T11:41:34.303Z,42.30
2019-02-18T11:44:01.612Z,42.00
2019-02-18T11:46:28.379Z,41.90
2019-02-18T11:48:55.156Z,42.10
2019-02-18T11:51:21.856Z,42.50
2019-02-18T11:53:48.585Z,42.90
2019-02-18T11:56:15.326Z,43.40
2019-02-18T11:58:42.036Z,43.70
2019-02-18T12:01:09.099Z,44.20
2019-02-18T12:03:35.796Z,44.70
2019-02-18T12:06:02.526Z,45.20
2019-02-18T12:08:29.255Z,45.40
2019-02-18T12:10:55.975Z,45.60
2019-02-18T12:13:22.752Z,45.70
2019-02-18T12:15:49.477Z,45.60
2019-02-18T12:18:16.197Z,45.20
2019-02-18T12:20:43.355Z,44.90
2019-02-18T12:23:10.074Z,44.50
2019-02-18T12:25:36.976Z,43.80
2019-02-18T12:28:03.750Z,43.00
2019-02-18T12:30:32.547Z,42.70
2019-02-18T12:32:59.884Z,41.50
2019-02-18T12:35:31.003Z,41.30
2019-02-18T12:37:55.722Z,41.20
2019-02-18T12:40:22.565Z,41.10
2019-02-18T12:42:49.306Z,41.00
2019-02-18T12:45:16.036Z,40.70
2019-02-18T12:47:42.776Z,40.50
2019-02-18T12:50:09.674Z,40.30
2019-02-18T12:52:36.463Z,39.30
2019-02-18T12:55:03.414Z,39.00
2019-02-18T12:57:30.664Z,38.80
2019-02-18T12:59:58.671Z,38.60
2019-02-18T13:02:26.009Z,38.10
2019-02-18T13:04:52.900Z,37.40
2019-02-18T13:07:19.800Z,37.00
2019-02-18T13:09:46.631Z,36.60
2019-02-18T13:12:13.340Z,36.30
2019-02-18T13:14:40.182Z,36.30
2019-02-18T13:17:07.137Z,36.30
2019-02-18T13:19:33.871Z,36.50
2019-02-18T13:22:00.818Z,36.80
2019-02-18T13:24:27.651Z,36.90
2019-02-18T13:26:54.601Z,37.50
2019-02-18T13:29:21.344Z,38.10
2019-02-18T13:31:48.184Z,38.10
2019-02-18T13:34:14.921Z,38.90
2019-02-18T13:36:41.769Z,39.90
2019-02-18T13:39:08.607Z,40.90
2019-02-18T13:41:36.911Z,41.60
2019-02-18T13:44:03.918Z,42.40
2019-02-18T13:46:30.666Z,43.20
2019-02-18T13:48:57.516Z,44.10
2019-02-18T13:51:24.621Z,44.80
2019-02-18T13:53:51.498Z,45.30
2019-02-18T13:56:18.227Z,45.60
2019-02-18T13:58:45.289Z,46.10
2019-02-18T14:01:12.026Z,46.50
2019-02-18T14:03:38.861Z,46.70
2019-02-18T14:06:05.603Z,46.80
2019-02-18T14:08:32.342Z,47.00
2019-02-18T14:10:59.183Z,47.10
2019-02-18T14:13:25.921Z,47.10
2019-02-18T14:15:52.961Z,47.00
2019-02-18T14:18:20.322Z,46.90
2019-02-18T14:20:47.060Z,46.90
2019-02-18T14:23:15.844Z,46.60
2019-02-18T14:25:42.381Z,46.40
2019-02-18T14:28:09.328Z,46.10
2019-02-18T14:30:36.077Z,45.90
2019-02-18T14:33:02.829Z,45.20
2019-02-18T14:35:30.164Z,44.90
2019-02-18T14:37:56.902Z,44.40
2019-02-18T14:40:23.688Z,43.70
2019-02-18T14:42:50.472Z,43.10
2019-02-18T14:45:17.221Z,42.40
2019-02-18T14:47:43.966Z,42.00
2019-02-18T14:50:10.698Z,41.70
2019-02-18T14:52:37.532Z,40.90
2019-02-18T14:55:04.580Z,40.10
2019-02-18T14:57:31.276Z,39.60
2019-02-18T14:59:58.212Z,39.30
2019-02-18T15:02:25.012Z,39.00
2019-02-18T15:04:51.808Z,38.70
2019-02-18T15:07:18.591Z,38.60
2019-02-18T15:09:45.333Z,38.30
2019-02-18T15:12:12.060Z,38.10
2019-02-18T15:14:38.799Z,37.80
2019-02-18T15:17:05.645Z,37.20
2019-02-18T15:19:32.399Z,36.70
2019-02-18T15:21:59.124Z,36.30
2019-02-18T15:24:25.859Z,35.90
2019-02-18T15:26:52.606Z,35.40
2019-02-18T15:29:19.440Z,34.90
2019-02-18T15:31:46.494Z,34.60
2019-02-18T15:34:13.234Z,34.10
2019-02-18T15:36:39.967Z,33.70
2019-02-18T15:39:06.709Z,33.50
2019-02-18T15:41:33.545Z,33.20
2019-02-18T15:44:00.298Z,32.90
2019-02-18T15:46:27.023Z,32.70
2019-02-18T15:48:53.767Z,32.50
2019-02-18T15:51:20.922Z,32.30
2019-02-18T15:53:47.757Z,32.00
2019-02-18T15:56:14.505Z,31.80
2019-02-18T15:58:41.233Z,31.60
2019-02-18T16:01:08.087Z,31.50
2019-02-18T16:03:34.829Z,31.30
2019-02-18T16:06:01.656Z,31.20
2019-02-18T16:08:28.814Z,30.90
2019-02-18T16:10:55.573Z,30.80
2019-02-18T16:13:22.282Z,30.60
2019-02-18T16:15:49.019Z,30.50
2019-02-18T16:18:15.799Z,30.40
2019-02-18T16:20:42.616Z,30.20
2019-02-18T16:23:09.341Z,30.10
2019-02-18T16:25:36.071Z,29.90
2019-02-18T16:28:03.254Z,29.80
2019-02-18T16:30:30.080Z,29.70
2019-02-18T16:32:56.819Z,29.60
2019-02-18T16:35:23.555Z,29.50
2019-02-18T16:37:50.302Z,29.40
2019-02-18T16:40:17.134Z,29.20
2019-02-18T16:42:43.958Z,29.10
2019-02-18T16:45:10.806Z,29.00
2019-02-18T16:47:37.634Z,28.80
2019-02-18T16:50:04.476Z,28.70
2019-02-18T16:52:31.175Z,28.60
2019-02-18T16:54:58.060Z,28.50
2019-02-18T16:57:24.789Z,28.40
2019-02-18T16:59:51.527Z,28.30
2019-02-18T17:02:18.269Z,28.20
2019-02-18T17:04:45.418Z,28.10
2019-02-18T17:07:12.268Z,28.00
2019-02-18T17:09:39.013Z,27.90
2019-02-18T17:12:05.738Z,27.80
2019-02-18T17:14:32.591Z,27.70
2019-02-18T17:16:59.282Z,27.50
2019-02-18T17:19:26.068Z,27.40
2019-02-18T17:21:52.797Z,27.30
2019-02-18T17:24:19.849Z,27.20
2019-02-18T17:26:46.584Z,27.10
2019-02-18T17:29:13.534Z,27.00
2019-02-18T17:31:40.327Z,26.90
2019-02-18T17:34:07.106Z,26.90
2019-02-18T17:36:34.440Z,26.80
2019-02-18T17:39:01.759Z,26.70
2019-02-18T17:41:28.929Z,26.60
2019-02-18T17:43:55.810Z,26.60
2019-02-18T17:46:22.550Z,26.50
2019-02-18T17:48:49.292Z,26.40
2019-02-18T17:51:16.253Z,26.40
2019-02-18T17:53:43.347Z,26.40
2019-02-18T17:56:10.313Z,26.30
2019-02-18T17:58:37.160Z,26.20
2019-02-18T18:01:04.309Z,26.10
2019-02-18T18:03:31.050Z,26.10
2019-02-18T18:05:57.807Z,26.00
2019-02-18T18:08:24.640Z,26.00
2019-02-18T18:10:51.479Z,26.00
2019-02-18T18:13:24.922Z,25.90
2019-02-18T18:15:46.804Z,25.80
2019-02-18T18:18:13.652Z,25.70
2019-02-18T18:20:40.588Z,25.70
2019-02-18T18:23:07.439Z,25.70
2019-02-18T18:25:34.272Z,25.60
2019-02-18T18:28:01.034Z,25.50
2019-02-18T18:30:27.855Z,25.50
2019-02-18T18:32:54.684Z,25.40
2019-02-18T18:35:21.446Z,25.40
2019-02-18T18:37:48.479Z,25.30
2019-02-18T18:40:15.317Z,25.20
2019-02-18T18:42:42.059Z,25.20
2019-02-18T18:45:09.885Z,25.10
2019-02-18T18:47:36.673Z,25.10
2019-02-18T18:50:03.686Z,25.10
2019-02-18T18:52:30.445Z,25.00
2019-02-18T18:54:57.929Z,24.90
2019-02-18T18:57:25.226Z,24.90
2019-02-18T18:59:51.918Z,24.90
2019-02-18T19:02:18.646Z,24.80
2019-02-18T19:04:45.358Z,24.80
2019-02-18T19:07:12.138Z,24.70
2019-02-18T19:09:38.970Z,24.70
2019-02-18T19:12:05.707Z,24.70
2019-02-18T19:14:32.562Z,24.60
2019-02-18T19:16:59.402Z,24.50
2019-02-18T19:22:12.188Z,24.50
2019-02-18T19:24:39.063Z,24.40
2019-02-18T19:27:05.985Z,24.30
2019-02-18T19:29:32.729Z,24.30
2019-02-18T19:31:59.423Z,24.20
2019-02-18T19:34:26.227Z,24.20
2019-02-18T19:36:52.941Z,24.20
2019-02-18T19:39:19.720Z,24.10
2019-02-18T19:41:46.667Z,24.10
2019-02-18T19:44:13.738Z,24.10
2019-02-18T19:46:40.513Z,24.00
2019-02-18T19:49:07.268Z,23.90
2019-02-18T19:51:33.981Z,23.90
2019-02-18T19:54:00.688Z,23.90
2019-02-18T19:56:27.545Z,23.80
2019-02-18T19:58:54.349Z,23.80
2019-02-18T20:01:21.379Z,23.80
2019-02-18T20:03:48.116Z,23.70
2019-02-18T20:06:14.875Z,23.70
2019-02-18T20:08:41.725Z,23.60
2019-02-18T20:11:08.578Z,23.60
2019-02-18T20:13:35.410Z,23.60
2019-02-18T20:16:02.256Z,23.60
2019-02-18T20:18:29.093Z,23.50
2019-02-18T20:20:55.942Z,23.50
2019-02-18T20:23:22.787Z,23.50
2019-02-18T20:25:50.322Z,23.40
2019-02-18T20:28:19.082Z,23.40
2019-02-18T20:30:46.333Z,23.40
2019-02-18T20:33:13.516Z,23.30
2019-02-18T20:35:43.143Z,23.30
2019-02-18T20:38:10.334Z,23.20
2019-02-18T20:40:39.673Z,23.20
2019-02-18T20:43:09.261Z,23.20
2019-02-18T20:45:38.109Z,23.10
2019-02-18T20:48:05.456Z,23.10
2019-02-18T20:50:34.654Z,23.10
2019-02-18T20:53:01.710Z,23.10
2019-02-18T20:55:29.655Z,23.00
2019-02-18T20:57:58.972Z,23.00
2019-02-18T21:00:27.412Z,23.00
2019-02-18T21:02:55.547Z,23.00
2019-02-18T21:05:24.121Z,22.90
2019-02-18T21:07:52.369Z,22.90
2019-02-18T21:10:20.962Z,22.90
2019-02-18T21:12:49.673Z,22.80
2019-02-18T21:15:17.608Z,22.80
2019-02-18T21:17:45.657Z,22.70
2019-02-18T21:20:14.546Z,22.70
2019-02-18T21:22:41.504Z,22.70
2019-02-18T21:25:11.340Z,22.60
2019-02-18T21:27:38.470Z,22.60
2019-02-18T21:30:06.132Z,22.60
2019-02-18T21:32:34.410Z,22.50
2019-02-18T21:35:03.344Z,22.50
2019-02-18T21:37:31.066Z,22.50
2019-02-18T21:39:59.263Z,22.40
2019-02-18T21:42:27.824Z,22.40
2019-02-18T21:44:55.438Z,22.40
2019-02-18T21:47:23.582Z,22.30
2019-02-18T21:49:52.643Z,22.30
2019-02-18T21:52:21.207Z,22.30
2019-02-18T21:54:49.985Z,22.30
2019-02-18T21:57:18.389Z,22.20
2019-02-18T21:59:47.421Z,22.20
2019-02-18T22:02:16.064Z,22.20
2019-02-18T22:04:44.653Z,22.10
2019-02-18T22:07:11.718Z,22.10
2019-02-18T22:09:38.456Z,22.10
2019-02-18T22:12:05.249Z,22.10
2019-02-18T22:14:33.804Z,22.10
2019-02-18T22:17:00.450Z,22.10
2019-02-18T22:19:27.190Z,22.00
2019-02-18T22:21:53.935Z,22.00
2019-02-18T22:24:20.787Z,22.00
2019-02-18T22:26:48.033Z,22.00
2019-02-18T22:29:14.718Z,21.90
2019-02-18T22:31:41.463Z,21.90
2019-02-18T22:34:08.360Z,21.90
2019-02-18T22:36:35.197Z,21.80
2019-02-18T22:39:02.041Z,21.80
2019-02-18T22:41:28.768Z,21.80
2019-02-18T22:43:55.512Z,21.70
2019-02-18T22:46:22.362Z,21.70
2019-02-18T22:48:49.406Z,21.70
2019-02-18T22:51:16.183Z,21.70
2019-02-18T22:53:42.993Z,21.60
2019-02-18T22:56:09.686Z,21.60
2019-02-18T22:58:36.402Z,21.50
2019-02-18T23:01:03.144Z,21.50
2019-02-18T23:03:29.908Z,21.50
2019-02-18T23:05:56.939Z,21.40
2019-02-18T23:08:23.668Z,21.40
2019-02-18T23:10:50.468Z,21.40
2019-02-18T23:13:17.394Z,21.40
2019-02-18T23:15:45.585Z,21.40
2019-02-18T23:18:12.413Z,21.40
2019-02-18T23:20:39.095Z,21.40
2019-02-18T23:23:05.813Z,21.40
2019-02-18T23:25:32.547Z,21.30
2019-02-18T23:27:59.375Z,21.30
2019-02-18T23:30:26.120Z,21.30
2019-02-18T23:32:53.028Z,21.30
2019-02-18T23:35:19.797Z,21.30
2019-02-18T23:37:46.646Z,21.30
2019-02-18T23:40:13.523Z,21.30
2019-02-18T23:42:40.433Z,21.30
2019-02-18T23:45:07.215Z,21.30
2019-02-18T23:47:34.042Z,21.20
2019-02-18T23:50:00.853Z,21.20
2019-02-18T23:52:27.708Z,21.20
2019-02-18T23:54:54.643Z,21.10
2019-02-18T23:57:21.334Z,21.20
2019-02-18T23:59:49.530Z,21.10
